Wednesday, June 29, 2016
05:28 UTC
  |  Log In   |  Register Free
Airport Search:

Madison Airport
(KI39)

Madison Airport Diagram
No Airport Diagram Available

FAA data valid effective May 26 2016 - Jul 21 2016 (unless otherwise noted).

 
 
 
 
 
 
 
 
 
 
 
 
 
 
Current Aviation Weather for KI39

Weather Summary


The most recent METAR observation for I39 was updated at: 12:55 UTC
METAR for KI39 is not available. Closest METAR is for KDVK
KI39  (most recent observation was updatred at 29:05 UTC)
290515Z AUTO 34004KT 10SM BKN050 BKN065 21/14 A3005 RMK AO2

KDVK  (21.0 nm NE)   (most recent observation was updated at 29:05 UTC)
290515Z AUTO 36005KT 10SM CLR 19/14 A3007 RMK AO2

KLEX  (27.6 nm SE)   (most recent observation was updated at 29:04 UTC)
290454Z AUTO 34006KT 10SM FEW060 19/14 A3006 RMK AO2 SLP170 T01940139 403170194

TAF for KI39 is not available.
KLEX  (27.6 nm SE)   (most recent observation was updatred at 29:05 UTC)
290520Z 2906/3006 35003KT P6SM SKC FM291300 01006KT P6SM FEW050 FM292300 01003KT P6SM SKC


GlobalAir.com is loading additional information.
 Current Weather at I39
72.0 F° (22.0 C°)

North winds at 5.8 mph
Pressure:
30.04 in
Humidity:
65%
Wind:
North at 5.8 mph
Dew Point:
59.0 F° (15.0 C°)
Visibility:
10.00 mi
I39 NOAA Radar




Find All Airport Services Find A Hotel Find A Rental Car Find A Golf Course Find A Restaurant $100 Hamburger



Airport Weather Forecast for KI39

Translated METAR for KI39 (0515 UTC)
METAR:
KI39 290515Z AUTO 34004KT 10SM BKN050 BKN065 21/14 A3005 RMK AO2
Conditions at:
KI39 (Madison, KY) observed 0515 UTC 29 June 2016
Temperature:
21°C (69.8°F)
Dewpoint:
14°C (57.2°F) [RH = 64.3]
Pressure:
30.05 inches Hg (1017.6 mb)
Winds:
from the NNW (340 degrees) at 4.6 mph (4 knots: 2.1 m/s)
Visibility:
10 mile(s)
Ceiling:
5,000 feet AGL
Clouds:
Broken Cloud Cover at 5,000 feet AGL
Broken Cloud Cover at 6,500 feet AGL
Remarks:
site is un-manned
site is automated and HAS a precipitation sensor

Translated TAF for KLEX (Blue Grass, KY) (0520 UTC)
TAF text:
KLEX 290520Z 2906/3006 35003KT P6SM SKC
Forecast period:
Wednesday Jun 29 2016 06:00 UTC - Thursday Jun 30 2016 06:00 UTC
Forecast type:
FROM: standard forecast or significant change
Winds:
from the N (350 degrees) at 3.5 mph (3 knots: 1.5 m/s)
Visibility:
6 or more mile(s) (9.7+ km)
Ceiling:
at least 12,000 feet AGL
Clouds:
Clear Skies
Weather:
no significant weather observed at this time
TAF text:
FM291300 01006KT P6SM FEW050
Forecast period:
Wednesday Jun 29 2016 13:00 UTC - Wednesday Jun 29 2016 23:00 UTC
Forecast type:
FROM: standard forecast or significant change
Winds:
from the N (010 degrees) at 6.9 mph (6 knots: 3.1 m/s)
Visibility:
6 or more mile(s) (9.7+ km)
Ceiling:
at least 12,000 feet AGL
Clouds:
Few Clouds at 5,000 feet AGL
Weather:
no significant weather observed at this time
TAF text:
FM292300 01003KT P6SM SKC
Forecast period:
Wednesday Jun 29 2016 23:00 UTC - Thursday Jun 30 2016 06:00 UTC
Forecast type:
FROM: standard forecast or significant change
Winds:
from the N (010 degrees) at 3.5 mph (3 knots: 1.5 m/s)
Visibility:
6 or more mile(s) (9.7+ km)
Ceiling:
at least 12,000 feet AGL
Clouds:
Clear Skies
Weather:
no significant weather observed at this time
FBO's on the Field
FBO Company Facility Photos Services Transportation Aviation Fuel Prices: Prices include tax
Catering Weather Repair Courtesy Rental Type 100LL JetA JetA+ MOGAS 8087
 
Eastern Kentucky University

This FBO has not yet been rated
FS:Shell
Last Updated: Jun-23
Login to update fuel prices
SS:
Contact Eastern Kentucky UniversityMore FBO Information
 
Add another FBO Facility Photos Catering Weather Repair Courtesy Rental Type 100LL JetA JetA+ MOGAS 8087
Services Transportation Aviation Fuel Prices: Prices include tax


model-print
model-print
model-print
model-print